sensor_id;sensor_type;location;lat;lon;timestamp;temperature;humidity
56761;DHT22;42633;44.494;11.356;2023-02-03T20:47:18;11.40;99.10
56761;DHT22;42633;44.494;11.356;2023-02-03T20:50:23;11.40;99.20
56761;DHT22;42633;44.494;11.356;2023-02-03T20:53:27;11.40;99.00
56761;DHT22;42633;44.494;11.356;2023-02-03T20:56:31;11.40;99.20
56761;DHT22;42633;44.494;11.356;2023-02-03T20:59:35;11.50;99.00
56761;DHT22;42633;44.494;11.356;2023-02-03T21:02:39;11.50;98.80
56761;DHT22;42633;44.494;11.356;2023-02-03T21:06:18;11.50;99.10
56761;DHT22;42633;44.494;11.356;2023-02-03T21:09:23;11.40;99.00
56761;DHT22;42633;44.494;11.356;2023-02-03T21:12:31;11.40;99.00
56761;DHT22;42633;44.494;11.356;2023-02-03T21:15:37;11.40;99.00
56761;DHT22;42633;44.494;11.356;2023-02-03T21:18:48;11.40;99.20
56761;DHT22;42633;44.494;11.356;2023-02-03T21:21:54;11.40;99.10
56761;DHT22;42633;44.494;11.356;2023-02-03T21:25:00;11.40;99.10
56761;DHT22;42633;44.494;11.356;2023-02-03T21:28:25;11.30;99.20
56761;DHT22;42633;44.494;11.356;2023-02-03T21:31:32;11.30;99.00
56761;DHT22;42633;44.494;11.356;2023-02-03T21:34:36;11.30;98.60
56761;DHT22;42633;44.494;11.356;2023-02-03T21:37:40;11.30;98.40
56761;DHT22;42633;44.494;11.356;2023-02-03T21:40:45;11.40;97.50
56761;DHT22;42633;44.494;11.356;2023-02-03T21:43:51;11.40;97.30
56761;DHT22;42633;44.494;11.356;2023-02-03T21:46:56;11.50;97.00
56761;DHT22;42633;44.494;11.356;2023-02-03T21:50:01;11.50;96.70
56761;DHT22;42633;44.494;11.356;2023-02-03T21:56:24;11.50;97.10
56761;DHT22;42633;44.494;11.356;2023-02-03T21:59:38;11.50;97.20
56761;DHT22;42633;44.494;11.356;2023-02-03T22:02:55;11.50;97.20
56761;DHT22;42633;44.494;11.356;2023-02-03T22:09:21;11.40;97.30
56761;DHT22;42633;44.494;11.356;2023-02-03T22:12:25;11.40;97.60
56761;DHT22;42633;44.494;11.356;2023-02-03T22:15:30;11.30;98.00
56761;DHT22;42633;44.494;11.356;2023-02-03T22:18:34;11.30;97.70
56761;DHT22;42633;44.494;11.356;2023-02-03T22:21:38;11.20;97.90
56761;DHT22;42633;44.494;11.356;2023-02-03T22:24:44;11.10;98.40
56761;DHT22;42633;44.494;11.356;2023-02-03T22:27:48;11.00;98.50
56761;DHT22;42633;44.494;11.356;2023-02-03T22:30:55;11.00;98.20
56761;DHT22;42633;44.494;11.356;2023-02-03T22:34:00;11.00;98.60
56761;DHT22;42633;44.494;11.356;2023-02-03T22:37:03;11.00;98.90
56761;DHT22;42633;44.494;11.356;2023-02-03T22:40:08;11.10;99.00
56761;DHT22;42633;44.494;11.356;2023-02-03T22:43:13;11.10;98.90
56761;DHT22;42633;44.494;11.356;2023-02-03T22:46:17;11.10;99.10
56761;DHT22;42633;44.494;11.356;2023-02-03T22:49:21;11.10;99.40
56761;DHT22;42633;44.494;11.356;2023-02-03T22:52:25;11.10;99.10
56761;DHT22;42633;44.494;11.356;2023-02-03T22:55:29;11.10;99.40
56761;DHT22;42633;44.494;11.356;2023-02-03T22:58:34;11.10;99.20
56761;DHT22;42633;44.494;11.356;2023-02-03T23:01:38;11.10;99.40
56761;DHT22;42633;44.494;11.356;2023-02-03T23:04:42;11.10;99.10
56761;DHT22;42633;44.494;11.356;2023-02-03T23:07:48;11.00;99.50
56761;DHT22;42633;44.494;11.356;2023-02-03T23:10:52;11.00;99.50
56761;DHT22;42633;44.494;11.356;2023-02-03T23:13:59;11.00;99.40
56761;DHT22;42633;44.494;11.356;2023-02-03T23:17:04;11.00;99.60
56761;DHT22;42633;44.494;11.356;2023-02-03T23:20:09;10.90;99.10
56761;DHT22;42633;44.494;11.356;2023-02-03T23:23:15;10.70;99.50
56761;DHT22;42633;44.494;11.356;2023-02-03T23:26:19;10.60;99.80
56761;DHT22;42633;44.494;11.356;2023-02-03T23:29:24;10.60;99.80
56761;DHT22;42633;44.494;11.356;2023-02-03T23:32:28;10.60;99.90
56761;DHT22;42633;44.494;11.356;2023-02-03T23:35:32;10.50;99.90
56761;DHT22;42633;44.494;11.356;2023-02-03T23:38:48;10.50;99.90
56761;DHT22;42633;44.494;11.356;2023-02-03T23:41:52;10.40;99.90
56761;DHT22;42633;44.494;11.356;2023-02-03T23:44:58;10.30;99.90
56761;DHT22;42633;44.494;11.356;2023-02-03T23:48:02;10.30;99.90
56761;DHT22;42633;44.494;11.356;2023-02-03T23:51:06;10.30;99.90
56761;DHT22;42633;44.494;11.356;2023-02-03T23:54:13;10.30;99.90
56761;DHT22;42633;44.494;11.356;2023-02-03T23:57:17;10.30;99.90
